Terminal Aerodrome Forecast
Issued by NWS St Louis, MO

Home | Current Version | Previous Version | Text Only | Print | Product List | Glossary Off
Versions: 1 2 3 4 5 6 7 8 9 10 11 12 13 14 15 16 17 18 19 20 21 22 23 24 25 26 27 28 29 30

000
FTUS43 KLSX 012300
TAFSTL
TAF
KSTL 012335Z 0200/0306 31010G20KT 5SM -RA BR BKN009 OVC012
     FM020300 32022G32KT 6SM -SN OVC012
     FM021200 32012KT P6SM OVC015
     FM021800 30010KT P6SM BKN025
     FM022000 30007KT P6SM BKN035=

USA.gov is the U.S. government's official web portal to all federal, state and local government web resources and services.